Main page
METAR-TAF:

METAR-TAF

Airports :

Sørkjosen Airport

Sørkjosen, Norway

latitude: 69-47N, longitude: 020-58E, elevation: 0 m

Current weather observation

The report was made 28 minutes ago, at 18:20 UTC
Wind 5 kt from the North, varying between North/Northwest and North/Northeast
Temperature 21°C
Humidity 69%
Pressure 1010 hPa
Visibility 10 km or more
no clouds below 1500 m and no cumulonimbus

METAR: ENSR 231820Z 35005KT 330V030 CAVOK 21/15 Q1010 RMK WIND RWY 32 33006KT WIND 1119FT 26009KT

Time: 20:48 (18:48 UTC)

Forecast

The report was made 7 hours and 48 minutes ago, at 11:00 UTC
Forecast valid from 23 at 12 UTC to 23 at 19 UTC
Wind 6 kt from the North/Northwest
Visibility 10 km or more
Few clouds at a height of 6000 ft
Temporary
from 23 at 12 UTC to 23 at 19 UTC
Few clouds at a height of 4000 ft, Towering cumulus.
Broken clouds at a height of 6000 ft

TAF: ENSR 231100Z 2312/2319 34006KT 9999 FEW060 TEMPO 2312/2319 FEW040TCU BKN060

Weather observations and forecasts of more than 4000 airports (METAR and TAF reports).

The available stations are represented by yellow and red dots on the map.

Hover mouse over dot to see the name of the station.

Then click to see weather observations and forecasts.

To change the map : click on the green buttons with a black cross to zoom in, on the green button with a dash to zoom out, or on the green arrows for adjacent maps.


METAR-TAF: